sensor_id;sensor_type;location;lat;lon;timestamp;pressure;altitude;pressure_sealevel;temperature;humidity
54459;BME280;40368;49.350;8.152;2022-09-01T00:00:30;1004.3;;;24.73;44.41
54459;BME280;40368;49.350;8.152;2022-09-01T00:01:30;1004.3;;;24.73;44.4
54459;BME280;40368;49.350;8.152;2022-09-01T00:02:30;1004.3;;;24.77;44.26
54459;BME280;40368;49.350;8.152;2022-09-01T00:03:30;1004.3;;;24.77;44.3
54459;BME280;40368;49.350;8.152;2022-09-01T00:04:30;1004.3;;;24.72;44.41
54459;BME280;40368;49.350;8.152;2022-09-01T00:05:30;1004.3;;;24.7;44.48
54459;BME280;40368;49.350;8.152;2022-09-01T00:06:30;1004.3;;;24.7;44.59
54459;BME280;40368;49.350;8.152;2022-09-01T00:07:30;1004.3;;;24.68;44.45
54459;BME280;40368;49.350;8.152;2022-09-01T00:08:30;1004.3;;;24.69;44.35
54459;BME280;40368;49.350;8.152;2022-09-01T00:09:30;1004.3;;;24.69;44.41
54459;BME280;40368;49.350;8.152;2022-09-01T00:10:30;1004.3;;;24.64;44.63
54459;BME280;40368;49.350;8.152;2022-09-01T00:11:30;1004.3;;;24.6;44.57
54459;BME280;40368;49.350;8.152;2022-09-01T00:12:30;1004.3;;;24.61;44.47
54459;BME280;40368;49.350;8.152;2022-09-01T00:13:30;1004.3;;;24.62;44.42
54459;BME280;40368;49.350;8.152;2022-09-01T00:14:31;1004.3;;;24.65;44.47
54459;BME280;40368;49.350;8.152;2022-09-01T00:15:31;1004.3;;;24.65;44.34
54459;BME280;40368;49.350;8.152;2022-09-01T00:16:30;1004.3;;;24.6;44.47
54459;BME280;40368;49.350;8.152;2022-09-01T00:17:30;1004.3;;;24.57;44.58
54459;BME280;40368;49.350;8.152;2022-09-01T00:18:30;1004.3;;;24.56;44.46
54459;BME280;40368;49.350;8.152;2022-09-01T00:19:30;1004.3;;;24.56;44.55
54459;BME280;40368;49.350;8.152;2022-09-01T00:20:30;1004.3;;;24.54;44.59
54459;BME280;40368;49.350;8.152;2022-09-01T00:21:32;1004.3;;;24.53;44.68
54459;BME280;40368;49.350;8.152;2022-09-01T00:22:30;1004.3;;;24.51;44.69
54459;BME280;40368;49.350;8.152;2022-09-01T00:23:30;1004.3;;;24.5;44.77
54459;BME280;40368;49.350;8.152;2022-09-01T00:24:30;1004.3;;;24.52;44.5
54459;BME280;40368;49.350;8.152;2022-09-01T00:25:30;1004.3;;;24.56;44.5
54459;BME280;40368;49.350;8.152;2022-09-01T00:26:30;1004.3;;;24.53;44.58
54459;BME280;40368;49.350;8.152;2022-09-01T00:27:30;1004.3;;;24.55;44.52
54459;BME280;40368;49.350;8.152;2022-09-01T00:28:31;1004.3;;;24.56;44.73
54459;BME280;40368;49.350;8.152;2022-09-01T00:29:30;1004.3;;;24.54;44.41
54459;BME280;40368;49.350;8.152;2022-09-01T00:30:30;1004.3;;;24.47;44.65
54459;BME280;40368;49.350;8.152;2022-09-01T00:31:30;1004.2;;;24.47;44.71
54459;BME280;40368;49.350;8.152;2022-09-01T00:32:30;1004.2;;;24.52;44.72
54459;BME280;40368;49.350;8.152;2022-09-01T00:33:30;1004.2;;;24.56;44.7
54459;BME280;40368;49.350;8.152;2022-09-01T00:34:30;1004.2;;;24.57;44.49
54459;BME280;40368;49.350;8.152;2022-09-01T00:35:30;1004.2;;;24.58;44.36
54459;BME280;40368;49.350;8.152;2022-09-01T00:36:30;1004.2;;;24.57;44.45
54459;BME280;40368;49.350;8.152;2022-09-01T00:37:30;1004.2;;;24.48;44.81
54459;BME280;40368;49.350;8.152;2022-09-01T00:38:30;1004.2;;;24.44;44.9
54459;BME280;40368;49.350;8.152;2022-09-01T00:39:30;1004.2;;;24.44;44.96
54459;BME280;40368;49.350;8.152;2022-09-01T00:40:30;1004.2;;;24.45;44.96
54459;BME280;40368;49.350;8.152;2022-09-01T00:41:30;1004.2;;;24.46;44.8
54459;BME280;40368;49.350;8.152;2022-09-01T00:42:30;1004.2;;;24.38;44.93
54459;BME280;40368;49.350;8.152;2022-09-01T00:43:39;1004.3;;;24.36;45.09
54459;BME280;40368;49.350;8.152;2022-09-01T00:44:30;1004.2;;;24.31;44.96
54459;BME280;40368;49.350;8.152;2022-09-01T00:45:30;1004.2;;;24.23;45.28
54459;BME280;40368;49.350;8.152;2022-09-01T00:46:31;1004.1;;;24.13;45.58
54459;BME280;40368;49.350;8.152;2022-09-01T00:47:30;1004.2;;;24.11;45.63
54459;BME280;40368;49.350;8.152;2022-09-01T00:48:30;1004.2;;;24.05;45.61
54459;BME280;40368;49.350;8.152;2022-09-01T00:49:31;1004.2;;;24.03;45.66
54459;BME280;40368;49.350;8.152;2022-09-01T00:50:30;1004.2;;;24.06;45.67
54459;BME280;40368;49.350;8.152;2022-09-01T00:51:30;1004.2;;;24.1;45.49
54459;BME280;40368;49.350;8.152;2022-09-01T00:52:31;1004.2;;;24.14;45.34
54459;BME280;40368;49.350;8.152;2022-09-01T00:53:30;1004.1;;;24.14;45.31
54459;BME280;40368;49.350;8.152;2022-09-01T00:54:31;1004.2;;;24.19;45.09
54459;BME280;40368;49.350;8.152;2022-09-01T00:55:30;1004.2;;;24.25;45.01
54459;BME280;40368;49.350;8.152;2022-09-01T00:56:30;1004.2;;;24.24;44.96
54459;BME280;40368;49.350;8.152;2022-09-01T00:57:30;1004.2;;;24.19;45.06
54459;BME280;40368;49.350;8.152;2022-09-01T00:58:30;1004.2;;;24.18;45.18
54459;BME280;40368;49.350;8.152;2022-09-01T00:59:30;1004.2;;;24.13;45.2
54459;BME280;40368;49.350;8.152;2022-09-01T01:00:31;1004.2;;;24.13;45.31
54459;BME280;40368;49.350;8.152;2022-09-01T01:01:30;1004.2;;;24.11;45.32
54459;BME280;40368;49.350;8.152;2022-09-01T01:02:30;1004.2;;;24.08;45.27
54459;BME280;40368;49.350;8.152;2022-09-01T01:03:30;1004.2;;;24.07;45.23
54459;BME280;40368;49.350;8.152;2022-09-01T01:04:30;1004.2;;;24.05;45.44
54459;BME280;40368;49.350;8.152;2022-09-01T01:05:32;1004.2;;;24.01;45.43
54459;BME280;40368;49.350;8.152;2022-09-01T01:07:30;1004.2;;;24.02;45.33
54459;BME280;40368;49.350;8.152;2022-09-01T01:08:30;1004.2;;;24.09;45.14
54459;BME280;40368;49.350;8.152;2022-09-01T01:09:33;1004.2;;;24.11;45.12
54459;BME280;40368;49.350;8.152;2022-09-01T01:10:41;1004.1;;;24.13;45.02
54459;BME280;40368;49.350;8.152;2022-09-01T01:11:40;1004.2;;;24.14;45.16
54459;BME280;40368;49.350;8.152;2022-09-01T01:12:40;1004.2;;;24.16;44.83
54459;BME280;40368;49.350;8.152;2022-09-01T01:13:30;1004.2;;;24.2;44.77
54459;BME280;40368;49.350;8.152;2022-09-01T01:14:30;1004.2;;;24.19;44.68
54459;BME280;40368;49.350;8.152;2022-09-01T01:15:30;1004.2;;;24.18;44.9
54459;BME280;40368;49.350;8.152;2022-09-01T01:16:30;1004.2;;;24.17;45.01
54459;BME280;40368;49.350;8.152;2022-09-01T01:17:30;1004.1;;;24.15;44.86
54459;BME280;40368;49.350;8.152;2022-09-01T01:18:30;1004.2;;;24.17;44.79
54459;BME280;40368;49.350;8.152;2022-09-01T01:19:33;1004.1;;;24.19;44.96
54459;BME280;40368;49.350;8.152;2022-09-01T01:20:30;1004.2;;;24.19;44.93
54459;BME280;40368;49.350;8.152;2022-09-01T01:21:31;1004.1;;;24.13;44.97
54459;BME280;40368;49.350;8.152;2022-09-01T01:22:32;1004.2;;;24.09;45.37
54459;BME280;40368;49.350;8.152;2022-09-01T01:23:32;1004.1;;;23.99;45.1
54459;BME280;40368;49.350;8.152;2022-09-01T01:24:31;1004.1;;;23.96;45.26
54459;BME280;40368;49.350;8.152;2022-09-01T01:25:32;1004.1;;;23.94;45.38
54459;BME280;40368;49.350;8.152;2022-09-01T01:26:30;1004.1;;;23.92;45.41
54459;BME280;40368;49.350;8.152;2022-09-01T01:27:30;1004.1;;;23.93;45.38
54459;BME280;40368;49.350;8.152;2022-09-01T01:28:31;1004.1;;;23.96;45.35
54459;BME280;40368;49.350;8.152;2022-09-01T01:29:30;1004.1;;;23.98;45.19
54459;BME280;40368;49.350;8.152;2022-09-01T01:30:30;1004.1;;;23.95;45.31
54459;BME280;40368;49.350;8.152;2022-09-01T01:31:30;1004.1;;;23.95;45.31
54459;BME280;40368;49.350;8.152;2022-09-01T01:32:30;1004.1;;;23.95;45.58
54459;BME280;40368;49.350;8.152;2022-09-01T01:33:32;1004.1;;;23.91;45.26
54459;BME280;40368;49.350;8.152;2022-09-01T01:34:30;1004.1;;;23.93;45.58
54459;BME280;40368;49.350;8.152;2022-09-01T01:35:30;1004.1;;;23.91;45.21
54459;BME280;40368;49.350;8.152;2022-09-01T01:36:32;1004.1;;;23.92;45.56
54459;BME280;40368;49.350;8.152;2022-09-01T01:37:32;1004.1;;;23.9;45.28
54459;BME280;40368;49.350;8.152;2022-09-01T01:38:30;1004.1;;;23.82;45.85
54459;BME280;40368;49.350;8.152;2022-09-01T01:39:30;1004;;;23.8;45.72
54459;BME280;40368;49.350;8.152;2022-09-01T01:40:30;1004.1;;;23.86;45.59
54459;BME280;40368;49.350;8.152;2022-09-01T01:41:30;1004.1;;;23.87;45.34
54459;BME280;40368;49.350;8.152;2022-09-01T01:42:31;1004.1;;;23.86;45.57
54459;BME280;40368;49.350;8.152;2022-09-01T01:43:30;1004;;;23.86;45.36
54459;BME280;40368;49.350;8.152;2022-09-01T01:44:30;1004.1;;;23.83;45.68
54459;BME280;40368;49.350;8.152;2022-09-01T01:45:30;1004.1;;;23.83;45.52
54459;BME280;40368;49.350;8.152;2022-09-01T01:46:31;1004;;;23.86;45.37
54459;BME280;40368;49.350;8.152;2022-09-01T01:47:30;1004.1;;;23.87;45.36
54459;BME280;40368;49.350;8.152;2022-09-01T01:48:30;1004.1;;;23.89;45.2
54459;BME280;40368;49.350;8.152;2022-09-01T01:49:30;1004.1;;;23.93;45.01
54459;BME280;40368;49.350;8.152;2022-09-01T01:50:30;1004.1;;;23.96;45.15
54459;BME280;40368;49.350;8.152;2022-09-01T01:51:30;1004.1;;;23.94;45.23
54459;BME280;40368;49.350;8.152;2022-09-01T01:52:30;1004.1;;;23.93;45.25
54459;BME280;40368;49.350;8.152;2022-09-01T01:53:31;1004.1;;;23.93;45.31
54459;BME280;40368;49.350;8.152;2022-09-01T01:54:30;1004.1;;;23.88;45.41
54459;BME280;40368;49.350;8.152;2022-09-01T01:55:30;1004.1;;;23.88;45.2
54459;BME280;40368;49.350;8.152;2022-09-01T01:56:30;1004.1;;;23.9;45.43
54459;BME280;40368;49.350;8.152;2022-09-01T01:57:30;1004.1;;;23.92;45.3
54459;BME280;40368;49.350;8.152;2022-09-01T01:58:30;1004.1;;;23.94;44.86
54459;BME280;40368;49.350;8.152;2022-09-01T01:59:30;1004.2;;;23.93;45.58
54459;BME280;40368;49.350;8.152;2022-09-01T02:00:31;1004.1;;;23.87;45.29
54459;BME280;40368;49.350;8.152;2022-09-01T02:01:30;1004.1;;;23.83;45.19
54459;BME280;40368;49.350;8.152;2022-09-01T02:02:30;1004.1;;;23.85;45.15
54459;BME280;40368;49.350;8.152;2022-09-01T02:03:31;1004.2;;;23.85;45.45
54459;BME280;40368;49.350;8.152;2022-09-01T02:04:30;1004.1;;;23.81;45.26
54459;BME280;40368;49.350;8.152;2022-09-01T02:05:30;1004.1;;;23.79;45.56
54459;BME280;40368;49.350;8.152;2022-09-01T02:06:31;1004.1;;;23.72;45.6
54459;BME280;40368;49.350;8.152;2022-09-01T02:07:30;1004.1;;;23.66;45.91
54459;BME280;40368;49.350;8.152;2022-09-01T02:08:30;1004.1;;;23.62;45.97
54459;BME280;40368;49.350;8.152;2022-09-01T02:09:30;1004.1;;;23.62;45.68
54459;BME280;40368;49.350;8.152;2022-09-01T02:10:31;1004.1;;;23.7;45.28
54459;BME280;40368;49.350;8.152;2022-09-01T02:11:30;1004.1;;;23.79;45.08
54459;BME280;40368;49.350;8.152;2022-09-01T02:12:30;1004.1;;;23.85;44.85
54459;BME280;40368;49.350;8.152;2022-09-01T02:13:30;1004.1;;;23.87;45.39
54459;BME280;40368;49.350;8.152;2022-09-01T02:14:30;1004.1;;;23.78;45.33
54459;BME280;40368;49.350;8.152;2022-09-01T02:15:30;1004.1;;;23.73;45.33
54459;BME280;40368;49.350;8.152;2022-09-01T02:16:30;1004.1;;;23.72;45.54
54459;BME280;40368;49.350;8.152;2022-09-01T02:17:30;1004.1;;;23.69;45.44
54459;BME280;40368;49.350;8.152;2022-09-01T02:18:32;1004.1;;;23.64;45.54
54459;BME280;40368;49.350;8.152;2022-09-01T02:19:30;1004.1;;;23.64;45.6
54459;BME280;40368;49.350;8.152;2022-09-01T02:20:30;1004.1;;;23.62;45.67
54459;BME280;40368;49.350;8.152;2022-09-01T02:21:30;1004.1;;;23.53;45.88
54459;BME280;40368;49.350;8.152;2022-09-01T02:22:30;1004;;;23.52;45.8
54459;BME280;40368;49.350;8.152;2022-09-01T02:23:30;1004;;;23.5;45.9
54459;BME280;40368;49.350;8.152;2022-09-01T02:24:30;1004;;;23.54;45.88
54459;BME280;40368;49.350;8.152;2022-09-01T02:25:30;1004;;;23.52;45.72
54459;BME280;40368;49.350;8.152;2022-09-01T02:26:31;1004;;;23.5;45.97
54459;BME280;40368;49.350;8.152;2022-09-01T02:27:30;1004;;;23.5;45.67
54459;BME280;40368;49.350;8.152;2022-09-01T02:29:30;1004;;;23.56;45.49
54459;BME280;40368;49.350;8.152;2022-09-01T02:30:30;1004;;;23.57;45.64
54459;BME280;40368;49.350;8.152;2022-09-01T02:31:31;1004;;;23.61;45.69
54459;BME280;40368;49.350;8.152;2022-09-01T02:32:30;1004;;;23.52;45.89
54459;BME280;40368;49.350;8.152;2022-09-01T02:33:31;1004;;;23.42;45.95
54459;BME280;40368;49.350;8.152;2022-09-01T02:34:30;1004;;;23.4;46.25
54459;BME280;40368;49.350;8.152;2022-09-01T02:35:31;1004;;;23.37;46.19
54459;BME280;40368;49.350;8.152;2022-09-01T02:36:30;1004;;;23.42;46.03
54459;BME280;40368;49.350;8.152;2022-09-01T02:37:30;1004;;;23.4;45.94
54459;BME280;40368;49.350;8.152;2022-09-01T02:38:30;1004.1;;;23.37;46.24
54459;BME280;40368;49.350;8.152;2022-09-01T02:39:30;1004.1;;;23.34;45.9
54459;BME280;40368;49.350;8.152;2022-09-01T02:40:30;1004.1;;;23.42;46.08
54459;BME280;40368;49.350;8.152;2022-09-01T02:41:30;1004.1;;;23.47;45.48
54459;BME280;40368;49.350;8.152;2022-09-01T02:42:30;1004.1;;;23.5;45.5
54459;BME280;40368;49.350;8.152;2022-09-01T02:43:30;1004.1;;;23.54;45.41
54459;BME280;40368;49.350;8.152;2022-09-01T02:44:30;1004.1;;;23.55;45.49
54459;BME280;40368;49.350;8.152;2022-09-01T02:45:30;1004.1;;;23.54;45.62
54459;BME280;40368;49.350;8.152;2022-09-01T02:46:30;1004.1;;;23.55;45.28
54459;BME280;40368;49.350;8.152;2022-09-01T02:47:30;1004.1;;;23.53;45.83
54459;BME280;40368;49.350;8.152;2022-09-01T02:48:31;1004.1;;;23.49;45.75
54459;BME280;40368;49.350;8.152;2022-09-01T02:49:30;1004.1;;;23.47;45.52
54459;BME280;40368;49.350;8.152;2022-09-01T02:50:30;1004.1;;;23.47;45.52
54459;BME280;40368;49.350;8.152;2022-09-01T02:51:30;1004.1;;;23.49;45.6
54459;BME280;40368;49.350;8.152;2022-09-01T02:52:30;1004;;;23.45;45.4
54459;BME280;40368;49.350;8.152;2022-09-01T02:53:30;1004.1;;;23.47;45.52
54459;BME280;40368;49.350;8.152;2022-09-01T02:54:30;1004.1;;;23.51;45.67
54459;BME280;40368;49.350;8.152;2022-09-01T02:55:30;1004.1;;;23.49;45.75
54459;BME280;40368;49.350;8.152;2022-09-01T02:56:30;1004.1;;;23.48;45.7
54459;BME280;40368;49.350;8.152;2022-09-01T02:57:30;1004;;;23.48;45.46
54459;BME280;40368;49.350;8.152;2022-09-01T02:58:30;1004.1;;;23.52;45.72
54459;BME280;40368;49.350;8.152;2022-09-01T02:59:30;1004.1;;;23.52;45.44
54459;BME280;40368;49.350;8.152;2022-09-01T03:00:30;1004.1;;;23.54;45.71
54459;BME280;40368;49.350;8.152;2022-09-01T03:01:30;1004.1;;;23.51;45.67
54459;BME280;40368;49.350;8.152;2022-09-01T03:02:30;1004.1;;;23.45;45.68
54459;BME280;40368;49.350;8.152;2022-09-01T03:03:30;1004.1;;;23.45;45.65
54459;BME280;40368;49.350;8.152;2022-09-01T03:04:30;1004.1;;;23.42;45.43
54459;BME280;40368;49.350;8.152;2022-09-01T03:05:30;1004.1;;;23.44;45.76
54459;BME280;40368;49.350;8.152;2022-09-01T03:06:32;1004;;;23.47;45.39
54459;BME280;40368;49.350;8.152;2022-09-01T03:07:30;1004.1;;;23.53;45.33
54459;BME280;40368;49.350;8.152;2022-09-01T03:08:30;1004;;;23.53;45.34
54459;BME280;40368;49.350;8.152;2022-09-01T03:09:30;1004;;;23.48;45.51
54459;BME280;40368;49.350;8.152;2022-09-01T03:10:31;1004;;;23.45;45.68
54459;BME280;40368;49.350;8.152;2022-09-01T03:11:30;1004.1;;;23.45;45.72
54459;BME280;40368;49.350;8.152;2022-09-01T03:12:30;1004;;;23.43;45.59
54459;BME280;40368;49.350;8.152;2022-09-01T03:13:30;1004.1;;;23.38;45.89
54459;BME280;40368;49.350;8.152;2022-09-01T03:14:30;1004.1;;;23.33;45.75
54459;BME280;40368;49.350;8.152;2022-09-01T03:15:30;1004.1;;;23.37;45.77
54459;BME280;40368;49.350;8.152;2022-09-01T03:16:30;1004;;;23.35;45.85
54459;BME280;40368;49.350;8.152;2022-09-01T03:17:30;1004;;;23.36;45.67
54459;BME280;40368;49.350;8.152;2022-09-01T03:18:30;1004;;;23.38;45.66
54459;BME280;40368;49.350;8.152;2022-09-01T03:19:30;1004;;;23.41;45.94
54459;BME280;40368;49.350;8.152;2022-09-01T03:20:30;1004;;;23.41;45.59
54459;BME280;40368;49.350;8.152;2022-09-01T03:21:30;1004;;;23.4;45.67
54459;BME280;40368;49.350;8.152;2022-09-01T03:22:30;1004;;;23.42;45.88
54459;BME280;40368;49.350;8.152;2022-09-01T03:23:30;1004;;;23.41;45.7
54459;BME280;40368;49.350;8.152;2022-09-01T03:24:30;1004;;;23.4;45.57
54459;BME280;40368;49.350;8.152;2022-09-01T03:25:30;1004;;;23.43;45.81
54459;BME280;40368;49.350;8.152;2022-09-01T03:26:30;1004;;;23.39;45.76
54459;BME280;40368;49.350;8.152;2022-09-01T03:27:30;1004;;;23.41;45.9
54459;BME280;40368;49.350;8.152;2022-09-01T03:28:30;1004;;;23.4;45.93
54459;BME280;40368;49.350;8.152;2022-09-01T03:29:30;1004;;;23.39;45.99
54459;BME280;40368;49.350;8.152;2022-09-01T03:30:31;1004;;;23.4;45.6
54459;BME280;40368;49.350;8.152;2022-09-01T03:31:30;1004;;;23.42;45.8
54459;BME280;40368;49.350;8.152;2022-09-01T03:32:30;1004;;;23.44;45.79
54459;BME280;40368;49.350;8.152;2022-09-01T03:33:30;1004;;;23.45;45.32
54459;BME280;40368;49.350;8.152;2022-09-01T03:34:30;1004;;;23.49;45.21
54459;BME280;40368;49.350;8.152;2022-09-01T03:35:30;1004.1;;;23.55;45.24
54459;BME280;40368;49.350;8.152;2022-09-01T03:36:30;1004.1;;;23.56;45.35
54459;BME280;40368;49.350;8.152;2022-09-01T03:37:30;1004.1;;;23.54;45.1
54459;BME280;40368;49.350;8.152;2022-09-01T03:38:30;1004.1;;;23.54;45.69
54459;BME280;40368;49.350;8.152;2022-09-01T03:39:30;1004.1;;;23.52;45.4
54459;BME280;40368;49.350;8.152;2022-09-01T03:40:31;1004.1;;;23.5;45.75
54459;BME280;40368;49.350;8.152;2022-09-01T03:41:30;1004.1;;;23.44;45.56
54459;BME280;40368;49.350;8.152;2022-09-01T03:42:30;1004.1;;;23.36;45.84
54459;BME280;40368;49.350;8.152;2022-09-01T03:43:30;1004.1;;;23.36;45.59
54459;BME280;40368;49.350;8.152;2022-09-01T03:44:30;1004.1;;;23.38;45.75
54459;BME280;40368;49.350;8.152;2022-09-01T03:45:30;1004.1;;;23.4;45.4
54459;BME280;40368;49.350;8.152;2022-09-01T03:46:30;1004.1;;;23.41;45.7
54459;BME280;40368;49.350;8.152;2022-09-01T03:47:30;1004.1;;;23.45;45.57
54459;BME280;40368;49.350;8.152;2022-09-01T03:48:30;1004;;;23.47;45.56
54459;BME280;40368;49.350;8.152;2022-09-01T03:49:30;1004;;;23.51;45.26
54459;BME280;40368;49.350;8.152;2022-09-01T03:50:30;1004;;;23.48;45.67
54459;BME280;40368;49.350;8.152;2022-09-01T03:51:30;1004.1;;;23.45;45.37
54459;BME280;40368;49.350;8.152;2022-09-01T03:52:30;1004.1;;;23.42;45.72
54459;BME280;40368;49.350;8.152;2022-09-01T03:53:31;1004.1;;;23.41;45.79
54459;BME280;40368;49.350;8.152;2022-09-01T03:54:30;1004.1;;;23.42;46.03
54459;BME280;40368;49.350;8.152;2022-09-01T03:55:30;1004.1;;;23.42;45.89
54459;BME280;40368;49.350;8.152;2022-09-01T03:56:30;1004.1;;;23.37;46.12
54459;BME280;40368;49.350;8.152;2022-09-01T03:57:30;1004.1;;;23.37;45.61
54459;BME280;40368;49.350;8.152;2022-09-01T03:58:30;1004.1;;;23.4;45.81
54459;BME280;40368;49.350;8.152;2022-09-01T03:59:30;1004.1;;;23.4;45.75
54459;BME280;40368;49.350;8.152;2022-09-01T04:00:30;1004.1;;;23.42;45.44
54459;BME280;40368;49.350;8.152;2022-09-01T04:01:30;1004;;;23.43;45.5
54459;BME280;40368;49.350;8.152;2022-09-01T04:02:30;1004.1;;;23.41;45.64
54459;BME280;40368;49.350;8.152;2022-09-01T04:03:30;1004;;;23.39;45.79
54459;BME280;40368;49.350;8.152;2022-09-01T04:04:30;1004;;;23.39;45.46
54459;BME280;40368;49.350;8.152;2022-09-01T04:05:30;1004.1;;;23.42;45.54
54459;BME280;40368;49.350;8.152;2022-09-01T04:06:30;1004;;;23.43;45.59
54459;BME280;40368;49.350;8.152;2022-09-01T04:07:30;1004.1;;;23.41;45.49
54459;BME280;40368;49.350;8.152;2022-09-01T04:08:30;1004.1;;;23.4;45.48
54459;BME280;40368;49.350;8.152;2022-09-01T04:09:31;1004.1;;;23.41;45.28
54459;BME280;40368;49.350;8.152;2022-09-01T04:10:30;1004.1;;;23.47;45.38
54459;BME280;40368;49.350;8.152;2022-09-01T04:11:30;1004.1;;;23.5;45.2
54459;BME280;40368;49.350;8.152;2022-09-01T04:12:30;1004.1;;;23.5;45.27
54459;BME280;40368;49.350;8.152;2022-09-01T04:13:32;1004;;;23.48;45.09
54459;BME280;40368;49.350;8.152;2022-09-01T04:14:30;1004;;;23.49;45.06
54459;BME280;40368;49.350;8.152;2022-09-01T04:15:30;1004.1;;;23.51;45.21
54459;BME280;40368;49.350;8.152;2022-09-01T04:16:31;1004.1;;;23.55;45.11
54459;BME280;40368;49.350;8.152;2022-09-01T04:17:30;1004.1;;;23.58;45
54459;BME280;40368;49.350;8.152;2022-09-01T04:18:30;1004.1;;;23.59;45.02
54459;BME280;40368;49.350;8.152;2022-09-01T04:19:32;1004.1;;;23.57;45.11
54459;BME280;40368;49.350;8.152;2022-09-01T04:20:30;1004.1;;;23.57;45.03
54459;BME280;40368;49.350;8.152;2022-09-01T04:21:30;1004.1;;;23.56;45.08
54459;BME280;40368;49.350;8.152;2022-09-01T04:22:30;1004.1;;;23.56;45
54459;BME280;40368;49.350;8.152;2022-09-01T04:23:30;1004.1;;;23.58;44.83
54459;BME280;40368;49.350;8.152;2022-09-01T04:24:30;1004.1;;;23.58;44.86
54459;BME280;40368;49.350;8.152;2022-09-01T04:25:30;1004.1;;;23.59;44.79
54459;BME280;40368;49.350;8.152;2022-09-01T04:26:30;1004.1;;;23.61;45.04
54459;BME280;40368;49.350;8.152;2022-09-01T04:27:30;1004.1;;;23.61;44.7
54459;BME280;40368;49.350;8.152;2022-09-01T04:28:31;1004.1;;;23.62;45.12
54459;BME280;40368;49.350;8.152;2022-09-01T04:29:30;1004.1;;;23.57;45.16
54459;BME280;40368;49.350;8.152;2022-09-01T04:30:30;1004.1;;;23.53;45.17
54459;BME280;40368;49.350;8.152;2022-09-01T04:31:30;1004.1;;;23.52;45.27
54459;BME280;40368;49.350;8.152;2022-09-01T04:32:30;1004.1;;;23.53;45.01
54459;BME280;40368;49.350;8.152;2022-09-01T04:33:30;1004.1;;;23.54;45.01
54459;BME280;40368;49.350;8.152;2022-09-01T04:34:30;1004.1;;;23.56;45.27
54459;BME280;40368;49.350;8.152;2022-09-01T04:35:30;1004.1;;;23.58;44.78
54459;BME280;40368;49.350;8.152;2022-09-01T04:36:30;1004.1;;;23.61;44.75
54459;BME280;40368;49.350;8.152;2022-09-01T04:37:30;1004.1;;;23.63;44.54
54459;BME280;40368;49.350;8.152;2022-09-01T04:38:30;1004.1;;;23.68;44.65
54459;BME280;40368;49.350;8.152;2022-09-01T04:39:30;1004.1;;;23.69;44.68
54459;BME280;40368;49.350;8.152;2022-09-01T04:40:31;1004.1;;;23.68;44.56
54459;BME280;40368;49.350;8.152;2022-09-01T04:41:30;1004.2;;;23.68;44.66
54459;BME280;40368;49.350;8.152;2022-09-01T04:42:30;1004.1;;;23.63;45.3
54459;BME280;40368;49.350;8.152;2022-09-01T04:43:30;1004.1;;;23.57;45.07
54459;BME280;40368;49.350;8.152;2022-09-01T04:44:30;1004.1;;;23.57;44.64
54459;BME280;40368;49.350;8.152;2022-09-01T04:45:30;1004.1;;;23.56;45
54459;BME280;40368;49.350;8.152;2022-09-01T04:46:31;1004.1;;;23.58;44.77
54459;BME280;40368;49.350;8.152;2022-09-01T04:47:30;1004.1;;;23.57;44.96
54459;BME280;40368;49.350;8.152;2022-09-01T04:48:30;1004.1;;;23.56;44.84
54459;BME280;40368;49.350;8.152;2022-09-01T04:49:30;1004.1;;;23.59;44.71
54459;BME280;40368;49.350;8.152;2022-09-01T04:50:30;1004.1;;;23.58;44.88
54459;BME280;40368;49.350;8.152;2022-09-01T04:51:30;1004.1;;;23.54;45.21
54459;BME280;40368;49.350;8.152;2022-09-01T04:52:31;1004.1;;;23.53;44.96
54459;BME280;40368;49.350;8.152;2022-09-01T04:53:30;1004;;;23.5;44.9
54459;BME280;40368;49.350;8.152;2022-09-01T04:54:30;1004.1;;;23.48;44.84
54459;BME280;40368;49.350;8.152;2022-09-01T04:55:30;1004.1;;;23.49;44.79
54459;BME280;40368;49.350;8.152;2022-09-01T04:56:30;1004;;;23.47;45.23
54459;BME280;40368;49.350;8.152;2022-09-01T04:57:30;1004;;;23.49;44.78
54459;BME280;40368;49.350;8.152;2022-09-01T04:58:30;1004.1;;;23.51;44.89
54459;BME280;40368;49.350;8.152;2022-09-01T04:59:30;1004;;;23.48;44.92
54459;BME280;40368;49.350;8.152;2022-09-01T05:00:30;1004.1;;;23.47;45.05
54459;BME280;40368;49.350;8.152;2022-09-01T05:01:30;1004.1;;;23.46;44.81
54459;BME280;40368;49.350;8.152;2022-09-01T05:02:30;1004.1;;;23.46;45.04
54459;BME280;40368;49.350;8.152;2022-09-01T05:03:30;1004.1;;;23.46;45.22
54459;BME280;40368;49.350;8.152;2022-09-01T05:04:30;1004.1;;;23.47;45.03
54459;BME280;40368;49.350;8.152;2022-09-01T05:05:34;1004.1;;;23.47;44.93
54459;BME280;40368;49.350;8.152;2022-09-01T05:06:30;1004.1;;;23.49;44.76
54459;BME280;40368;49.350;8.152;2022-09-01T05:07:30;1004.1;;;23.51;45.18
54459;BME280;40368;49.350;8.152;2022-09-01T05:08:30;1004.1;;;23.48;44.79
54459;BME280;40368;49.350;8.152;2022-09-01T05:09:32;1004.1;;;23.48;45.02
54459;BME280;40368;49.350;8.152;2022-09-01T05:10:31;1004.1;;;23.47;45.18
54459;BME280;40368;49.350;8.152;2022-09-01T05:11:30;1004.1;;;23.46;45
54459;BME280;40368;49.350;8.152;2022-09-01T05:12:30;1004.1;;;23.44;44.8
54459;BME280;40368;49.350;8.152;2022-09-01T05:13:30;1004.1;;;23.45;44.79
54459;BME280;40368;49.350;8.152;2022-09-01T05:14:30;1004.1;;;23.48;44.62
54459;BME280;40368;49.350;8.152;2022-09-01T05:15:30;1004.1;;;23.46;45.63
54459;BME280;40368;49.350;8.152;2022-09-01T05:16:30;1004.1;;;23.44;45.08
54459;BME280;40368;49.350;8.152;2022-09-01T05:17:30;1004.1;;;23.43;44.92
54459;BME280;40368;49.350;8.152;2022-09-01T05:18:30;1004.1;;;23.44;44.79
54459;BME280;40368;49.350;8.152;2022-09-01T05:19:30;1004.1;;;23.43;44.75
54459;BME280;40368;49.350;8.152;2022-09-01T05:20:30;1004.1;;;23.45;45.06
54459;BME280;40368;49.350;8.152;2022-09-01T05:21:30;1004.1;;;23.46;44.96
54459;BME280;40368;49.350;8.152;2022-09-01T05:22:30;1004.1;;;23.46;45.03
54459;BME280;40368;49.350;8.152;2022-09-01T05:23:30;1004.1;;;23.46;44.65
54459;BME280;40368;49.350;8.152;2022-09-01T05:24:30;1004.1;;;23.45;44.88
54459;BME280;40368;49.350;8.152;2022-09-01T05:25:30;1004.1;;;23.44;44.93
54459;BME280;40368;49.350;8.152;2022-09-01T05:26:31;1004;;;23.43;44.8
54459;BME280;40368;49.350;8.152;2022-09-01T05:27:30;1004.1;;;23.41;44.82
54459;BME280;40368;49.350;8.152;2022-09-01T05:28:31;1004;;;23.37;44.85
54459;BME280;40368;49.350;8.152;2022-09-01T05:29:30;1004;;;23.37;44.91
54459;BME280;40368;49.350;8.152;2022-09-01T05:30:30;1004;;;23.35;44.98
54459;BME280;40368;49.350;8.152;2022-09-01T05:31:30;1004;;;23.31;45.15